• Join FlightAware (Why Join?)
  • Login
  • US Flag 
11:33PM EDT


 

Airport Tracker/Info


-or-


 

Live Flight TrackerFlight Track Log ✈ SWA2236 ✈ 09-Jul-2013 ✈ KDAL - KABQ

Flight Track Log - Related Links

Times and Time Zones

All times are in EDT time to prevent confusion due to time zone crossing. See the SWA2236 flight status page for this flight to view local times or setup timezone preferences in your user account.

Time Position Orientation Groundspeed Altitude Reporting Facility
EDT Latitude Longitude Course Direction KTS MPH feet Rate Location/Type
07:13AM 32.8333 -96.8167 140° Southeast 164 189 1,600  Level Dallas / Fort Worth TRACON
07:14AM 32.8000 -96.7833 140° Southeast 231 266 3,100 2,220 Climbing Dallas / Fort Worth TRACON
07:15AM 32.7500 -96.7500 151° Southeast 219 252 5,900 2,640 Climbing Dallas / Fort Worth TRACON
07:16AM 32.7000 -96.7833 209° Southwest 269 310 8,200 2,280 Climbing Dallas / Fort Worth TRACON
07:17AM 32.6667 -96.8667 245° Southwest 307 353 10,300 2,460 Climbing Dallas / Fort Worth TRACON
07:19AM 32.7139 -97.0875 284° West 349 402 15,800 2,580 Climbing Fort Worth Center
07:20AM 32.7433 -97.2208 285° West 378 435 18,300 2,400 Climbing Fort Worth Center
07:21AM 32.7708 -97.3344 286° West 389 448 20,600 2,400 Climbing Fort Worth Center
07:22AM 32.8042 -97.4728 286° West 394 453 23,100 2,100 Climbing Fort Worth Center
07:23AM 32.8333 -97.5939 286° West 400 460 24,800 1,800 Climbing Fort Worth Center
07:24AM 32.8600 -97.7400 282° West 441 507 26,700 1,740 Climbing Fort Worth Center
07:25AM 32.8636 -97.8983 272° West 451 519 28,300 1,500 Climbing Fort Worth Center
07:26AM 32.8694 -98.0367 273° West 460 529 29,700 1,500 Climbing Fort Worth Center
07:27AM 32.9228 -98.1956 292° West 465 535 31,300 1,800 Climbing Fort Worth Center
07:28AM 32.9700 -98.3247 294° West 471 542 33,300 1,860 Climbing Fort Worth Center
07:29AM 33.0189 -98.4614 293° West 471 542 35,100 1,560 Climbing Fort Worth Center
07:30AM 33.0719 -98.6008 294° West 466 536 36,500 1,260 Climbing Fort Worth Center
07:31AM 33.1206 -98.7406 293° West 459 528 37,700 720 Climbing Fort Worth Center
07:32AM 33.1714 -98.8803 294° West 459 528 38,000 120 Climbing Fort Worth Center
07:33AM 33.2197 -99.0200 292° West 459 528 38,000  Level Fort Worth Center
07:34AM 33.2700 -99.1575 294° West 459 528 38,000  Level Fort Worth Center
07:35AM 33.3181 -99.2953 293° West 459 528 38,000  Level Fort Worth Center
07:36AM 33.3661 -99.4331 293° West 459 528 38,000  Level Fort Worth Center
07:37AM 33.4158 -99.5736 293° West 459 528 38,000  Level Fort Worth Center
07:38AM 33.4656 -99.7117 293° West 459 528 38,000  Level Fort Worth Center
07:39AM 33.5131 -99.8500 292° West 459 528 38,000  Level Fort Worth Center
07:40AM 33.5583 -99.9883 291° West 454 522 38,000  Level Fort Worth Center
07:41AM 33.6075 -100.1269 293° West 454 522 38,000  Level Fort Worth Center
07:42AM 33.6544 -100.2656 292° West 454 522 38,000  Level Fort Worth Center
07:43AM 33.7014 -100.4044 292° West 454 522 38,000  Level Fort Worth Center
07:44AM 33.7483 -100.5386 293° West 454 522 38,000  Level Fort Worth Center
07:45AM 33.7947 -100.6778 292° West 454 522 38,000  Level Fort Worth Center
07:46AM 33.8389 -100.8169 291° West 454 522 38,000  Level Fort Worth Center
07:47AM 33.8853 -100.9561 292° West 454 522 38,000  Level Fort Worth Center
07:48AM 33.9394 -101.1061 294° West 448 516 38,000  Level Fort Worth Center
07:49AM 33.9811 -101.2456 290° West 448 516 38,000  Level Fort Worth Center
07:50AM 34.0289 -101.3856 292° West 443 510 38,000  Level Fort Worth Center
07:51AM 34.0725 -101.5231 291° West 443 510 38,000  Level Fort Worth Center
07:52AM 34.1200 -101.6606 293° West 448 516 38,000  Level Fort Worth Center
07:54AM 34.2211 -101.9761 291° West 453 521 38,000  Level Albuquerque Center
07:55AM 34.2667 -102.1192 291° West 454 522 38,000  Level Albuquerque Center
07:56AM 34.3122 -102.2622 291° West 455 524 38,000  Level Albuquerque Center
07:57AM 34.3589 -102.4056 292° West 455 524 38,000  Level Albuquerque Center
07:58AM 34.4031 -102.5475 291° West 452 520 38,000  Level Albuquerque Center
07:59AM 34.4475 -102.6878 291° West 448 516 38,000  Level Albuquerque Center
08:00AM 34.4914 -102.8275 291° West 445 512 38,000  Level Albuquerque Center
08:01AM 34.5136 -102.9836 280° West 448 516 38,000  Level Albuquerque Center
08:02AM 34.5317 -103.1333 278° West 446 513 38,000  Level Albuquerque Center
08:03AM 34.5489 -103.2847 278° West 448 516 38,000  Level Albuquerque Center
08:04AM 34.5667 -103.4336 278° West 444 511 38,000  Level Albuquerque Center
08:05AM 34.5858 -103.5850 279° West 447 514 38,000  Level Albuquerque Center
08:06AM 34.6203 -103.7306 286° West 446 513 38,000  Level Albuquerque Center
08:07AM 34.6556 -103.8764 286° West 446 513 38,000  Level Albuquerque Center
08:08AM 34.6917 -104.0222 287° West 445 512 38,000  Level Albuquerque Center
08:09AM 34.7267 -104.1703 286° West 448 516 38,000  Level Albuquerque Center
08:10AM 34.7628 -104.3181 287° West 448 516 38,000  Level Albuquerque Center
08:11AM 34.7978 -104.4658 286° West 449 517 38,000  Level Albuquerque Center
08:12AM 34.8269 -104.5886 286° West 447 514 38,000  Level Albuquerque Center
08:13AM 34.8467 -104.7403 279° West 447 514 38,000 -120 Level Albuquerque Center
08:14AM 34.8611 -104.8914 277° West 445 512 37,800 -900 Descending Albuquerque Center
08:15AM 34.8781 -105.0422 278° West 444 511 36,200 -2,340 Descending Albuquerque Center
08:16AM 34.8933 -105.1928 277° West 444 511 33,200 -3,180 Descending Albuquerque Center
08:17AM 34.9083 -105.3472 277° West 451 519 29,800 -3,060 Descending Albuquerque Center
08:18AM 34.9239 -105.5033 277° West 459 528 27,100 -2,760 Descending Albuquerque Center
08:19AM 34.9392 -105.6547 277° West 449 517 24,300 -2,880 Descending Albuquerque Center
08:20AM 34.9492 -105.7764 276° West 435 501 22,100 -2,820 Descending Albuquerque Center
08:21AM 34.9569 -105.8653 276° West 429 494 20,500 -2,400 Descending Albuquerque Center
08:21AM 34.9644 -105.9411 277° West 431 496 19,100 -2,040 Descending Albuquerque Center
08:22AM 34.9789 -106.0794 277° West 415 478 17,100 -1,860 Descending Albuquerque Center
08:23AM 34.9889 -106.2119 275° West 399 459 15,400 -2,460 Descending Albuquerque Center
08:24AM 34.9658 -106.3375 257° West 386 444 12,100 -2,760 Descending Albuquerque Center
08:25AM 34.9247 -106.4581 247° West 382 440 9,900 -1,260 Descending Albuquerque Center
08:26AM 34.8881 -106.5506 244° Southwest 339 390 9,600 -540 Descending Albuquerque Center
08:27AM 34.8794 -106.6231 262° West 264 304 8,900 -1,020 Descending Albuquerque Center
08:28AM 34.9208 -106.6667 319° Northwest 223 257 7,600 -1,140 Descending Albuquerque Center
08:29AM 34.9661 -106.6853 341° North 193 222 6,700 -900 Descending Albuquerque Center
08:30AM 35.0061 -106.6497 36° Northeast 169 194 5,800 -720 Descending Albuquerque Center
08:31AM 35.0328 -106.6172 45° Northeast 161 185 5,300 -540 Descending Albuquerque Center
08:33AM 35.0333 -106.6000 90° East  Level FlightAware Approximate